createdAt,value
2023-03-29T00:00:52.073Z,25.18
2023-03-29T00:02:52.048Z,25.13
2023-03-29T00:03:52.097Z,25.16
2023-03-29T00:04:51.933Z,25.16
2023-03-29T00:07:51.881Z,25.16
2023-03-29T00:09:51.850Z,25.15
2023-03-29T00:11:51.804Z,25.16
2023-03-29T00:13:51.770Z,25.15
2023-03-29T00:16:51.752Z,25.16
2023-03-29T00:17:51.736Z,25.15
2023-03-29T00:18:51.672Z,25.15
2023-03-29T00:19:51.667Z,25.15
2023-03-29T00:20:51.680Z,25.13
2023-03-29T00:22:51.622Z,25.15
2023-03-29T00:23:51.625Z,25.12
2023-03-29T00:24:51.570Z,25.12
2023-03-29T00:25:51.573Z,25.15
2023-03-29T00:29:51.468Z,25.18
2023-03-29T00:31:51.560Z,25.16
2023-03-29T00:33:51.395Z,25.12
2023-03-29T00:34:51.357Z,25.12
2023-03-29T00:35:51.424Z,25.13
2023-03-29T00:36:51.327Z,25.12
2023-03-29T00:40:51.229Z,25.13
2023-03-29T00:41:51.207Z,25.11
2023-03-29T00:42:51.207Z,25.12
2023-03-29T00:43:51.178Z,25.13
2023-03-29T00:45:51.143Z,25.11
2023-03-29T00:47:51.133Z,25.11
2023-03-29T00:50:51.049Z,25.08
2023-03-29T00:51:51.034Z,25.06
2023-03-29T00:52:51.000Z,25.08
2023-03-29T00:55:50.932Z,25.08
2023-03-29T00:56:50.944Z,25.06
2023-03-29T00:57:50.894Z,25.08
2023-03-29T00:58:50.872Z,25.09
2023-03-29T01:02:50.889Z,25.05
2023-03-29T01:04:50.769Z,25.05
2023-03-29T01:06:50.801Z,25.06
2023-03-29T01:07:50.716Z,25.05
2023-03-29T01:08:50.672Z,25.05
2023-03-29T01:10:50.651Z,25.04
2023-03-29T01:13:50.585Z,25.05
2023-03-29T01:15:50.542Z,25.05
2023-03-29T01:16:50.588Z,25.04
2023-03-29T01:17:50.557Z,25.04
2023-03-29T01:19:50.482Z,25.04
2023-03-29T01:22:50.420Z,25.05
2023-03-29T01:23:50.391Z,25.05
2023-03-29T01:24:50.375Z,25.02
2023-03-29T01:28:50.280Z,25.04
2023-03-29T01:29:50.271Z,25.02
2023-03-29T01:32:50.261Z,25.02
2023-03-29T01:33:50.175Z,25.04
2023-03-29T01:34:50.193Z,25.01
2023-03-29T01:35:50.275Z,25.01
2023-03-29T01:36:50.265Z,25.01
2023-03-29T01:37:50.306Z,25.02
2023-03-29T01:38:50.354Z,24.98
2023-03-29T01:39:50.383Z,24.99
2023-03-29T01:40:50.426Z,24.99
2023-03-29T01:41:50.467Z,24.99
2023-03-29T01:42:50.506Z,24.97
2023-03-29T01:43:50.550Z,24.99
2023-03-29T01:44:50.587Z,24.98
2023-03-29T01:45:50.635Z,24.99
2023-03-29T01:46:50.663Z,24.98
2023-03-29T01:47:50.728Z,24.99
2023-03-29T01:48:50.716Z,24.99
2023-03-29T01:49:50.760Z,24.97
2023-03-29T01:50:50.793Z,24.98
2023-03-29T01:51:50.847Z,24.98
2023-03-29T01:52:50.882Z,24.97
2023-03-29T01:53:50.942Z,24.99
2023-03-29T01:54:50.956Z,24.98
2023-03-29T01:55:50.998Z,24.98
2023-03-29T01:56:51.043Z,24.95
2023-03-29T01:57:51.085Z,24.98
2023-03-29T01:58:51.095Z,24.98
2023-03-29T01:59:51.125Z,24.97
2023-03-29T02:00:51.175Z,24.97
2023-03-29T02:01:51.278Z,24.98
2023-03-29T02:02:51.368Z,24.99
2023-03-29T02:03:51.284Z,24.94
2023-03-29T02:04:51.335Z,24.98
2023-03-29T02:05:51.347Z,24.98
2023-03-29T02:06:51.402Z,24.97
2023-03-29T02:07:51.445Z,24.97
2023-03-29T02:08:51.464Z,24.97
2023-03-29T02:09:51.508Z,24.98
2023-03-29T02:10:51.550Z,24.94
2023-03-29T02:11:51.600Z,24.94
2023-03-29T02:12:51.625Z,24.94
2023-03-29T02:13:51.660Z,24.95
2023-03-29T02:14:51.698Z,24.95
2023-03-29T02:15:51.743Z,24.97
2023-03-29T02:16:51.756Z,24.95
2023-03-29T02:17:51.841Z,24.92
2023-03-29T02:18:51.838Z,24.92
2023-03-29T02:19:51.898Z,24.92
2023-03-29T02:20:51.940Z,24.95
2023-03-29T02:23:52.041Z,24.94
2023-03-29T02:24:52.074Z,24.92
2023-03-29T02:25:52.114Z,24.94
2023-03-29T02:26:52.150Z,24.91
2023-03-29T02:27:52.212Z,24.92
2023-03-29T02:28:52.251Z,24.94
2023-03-29T02:29:52.278Z,24.92
2023-03-29T02:30:52.329Z,24.91
2023-03-29T02:31:52.378Z,24.94
2023-03-29T02:32:52.437Z,24.94
2023-03-29T02:33:52.435Z,24.92
2023-03-29T02:34:52.479Z,24.89
2023-03-29T02:35:52.562Z,24.94
2023-03-29T02:36:52.543Z,24.88
2023-03-29T02:37:52.615Z,24.91
2023-03-29T02:38:52.616Z,24.92
2023-03-29T02:39:52.689Z,24.89
2023-03-29T02:40:52.698Z,24.88
2023-03-29T02:41:52.733Z,24.91
2023-03-29T02:42:52.774Z,24.88
2023-03-29T02:43:52.807Z,24.89
2023-03-29T02:46:52.951Z,24.82
2023-03-29T02:47:52.989Z,24.77
2023-03-29T02:48:53.014Z,24.75
2023-03-29T02:49:53.045Z,24.71
2023-03-29T02:50:53.086Z,24.68
2023-03-29T02:51:53.134Z,24.66
2023-03-29T02:52:53.180Z,24.60
2023-03-29T02:53:53.223Z,24.54
2023-03-29T02:54:53.256Z,24.50
2023-03-29T02:55:53.300Z,24.46
2023-03-29T02:56:53.366Z,24.43
2023-03-29T02:57:53.387Z,24.40
2023-03-29T02:58:53.444Z,24.36
2023-03-29T02:59:53.481Z,24.30
2023-03-29T03:00:53.538Z,24.27
2023-03-29T03:01:53.753Z,24.23
2023-03-29T03:02:53.687Z,24.22
2023-03-29T03:03:53.813Z,24.18
2023-03-29T03:04:53.724Z,24.15
2023-03-29T03:05:53.773Z,24.13
2023-03-29T03:06:53.817Z,24.11
2023-03-29T03:07:53.884Z,24.07
2023-03-29T03:08:53.909Z,24.05
2023-03-29T03:09:53.938Z,24.04
2023-03-29T03:10:54.018Z,24.02
2023-03-29T03:11:54.022Z,23.99
2023-03-29T03:12:54.076Z,23.98
2023-03-29T03:13:54.132Z,23.99
2023-03-29T03:14:54.192Z,23.97
2023-03-29T03:15:54.279Z,23.95
2023-03-29T03:16:54.255Z,23.94
2023-03-29T03:17:54.332Z,23.91
2023-03-29T03:18:54.369Z,23.91
2023-03-29T03:19:54.389Z,23.92
2023-03-29T03:20:54.438Z,23.89
2023-03-29T03:21:54.494Z,23.91
2023-03-29T03:22:54.586Z,23.94
2023-03-29T03:23:54.598Z,23.89
2023-03-29T03:24:54.609Z,23.91
2023-03-29T03:25:54.650Z,23.89
2023-03-29T03:26:54.684Z,23.92
2023-03-29T03:27:54.748Z,23.92
2023-03-29T03:28:54.809Z,23.91
2023-03-29T03:29:54.820Z,23.88
2023-03-29T03:30:54.855Z,23.91
2023-03-29T03:31:54.941Z,23.92
2023-03-29T03:32:55.029Z,23.94
2023-03-29T03:33:55.008Z,23.92
2023-03-29T03:34:55.040Z,23.94
2023-03-29T03:35:55.107Z,23.92
2023-03-29T03:36:55.136Z,23.95
2023-03-29T03:37:55.188Z,23.94
2023-03-29T03:38:55.236Z,23.94
2023-03-29T03:39:55.248Z,23.95
2023-03-29T03:40:55.319Z,23.94
2023-03-29T03:41:55.361Z,23.94
2023-03-29T03:42:55.430Z,23.95
2023-03-29T03:43:55.480Z,23.92
2023-03-29T03:44:55.548Z,23.94
2023-03-29T03:45:55.590Z,23.92
2023-03-29T03:46:55.630Z,23.92
2023-03-29T03:47:55.736Z,23.91
2023-03-29T03:48:55.714Z,23.95
2023-03-29T03:49:55.800Z,23.95
2023-03-29T03:50:55.809Z,23.95
2023-03-29T03:51:55.868Z,23.94
2023-03-29T03:52:55.909Z,23.97
2023-03-29T03:53:55.973Z,23.91
2023-03-29T03:54:55.959Z,23.94
2023-03-29T04:00:55.893Z,23.95
2023-03-29T04:01:55.944Z,23.95
2023-03-29T04:02:56.015Z,23.94
2023-03-29T04:03:56.054Z,23.91
2023-03-29T04:05:55.828Z,23.91
2023-03-29T04:10:55.771Z,23.92
2023-03-29T04:11:55.758Z,23.91
2023-03-29T04:12:55.732Z,23.91
2023-03-29T04:15:55.776Z,23.92
2023-03-29T04:19:55.696Z,23.91
2023-03-29T04:21:55.652Z,23.95
2023-03-29T04:23:55.629Z,23.99
2023-03-29T04:25:55.610Z,24.05
2023-03-29T04:28:55.563Z,24.08
2023-03-29T04:32:55.625Z,24.04
2023-03-29T04:35:55.484Z,23.98
2023-03-29T04:37:55.418Z,23.94
2023-03-29T04:38:55.396Z,23.92
2023-03-29T04:42:55.354Z,23.82
2023-03-29T04:45:55.382Z,23.77
2023-03-29T04:47:55.348Z,23.80
2023-03-29T04:49:55.301Z,23.77
2023-03-29T04:52:55.278Z,23.75
2023-03-29T04:53:55.278Z,23.73
2023-03-29T04:54:55.289Z,23.73
2023-03-29T04:58:55.214Z,23.67
2023-03-29T05:00:55.193Z,23.56
2023-03-29T05:03:55.215Z,23.47
2023-03-29T05:04:55.182Z,23.46
2023-03-29T05:06:55.167Z,23.47
2023-03-29T05:07:55.169Z,23.46
2023-03-29T05:10:55.132Z,23.46
2023-03-29T05:12:55.100Z,23.49
2023-03-29T05:17:55.083Z,23.58
2023-03-29T05:18:55.089Z,23.61
2023-03-29T05:19:55.085Z,23.64
2023-03-29T05:22:55.034Z,23.74
2023-03-29T05:23:55.042Z,23.75
2023-03-29T05:24:55.099Z,23.80
2023-03-29T05:25:55.022Z,23.82
2023-03-29T05:29:54.998Z,23.92
2023-03-29T05:32:54.981Z,23.99
2023-03-29T05:33:55.000Z,24.04
2023-03-29T05:35:54.928Z,24.09
2023-03-29T05:38:54.824Z,24.15
2023-03-29T05:39:54.827Z,24.20
2023-03-29T05:41:54.807Z,24.25
2023-03-29T05:42:54.775Z,24.30
2023-03-29T05:47:54.761Z,24.46
2023-03-29T05:48:54.726Z,24.47
2023-03-29T05:49:54.740Z,24.50
2023-03-29T05:51:55.267Z,24.59
2023-03-29T05:54:54.589Z,24.64
2023-03-29T05:55:54.602Z,24.67
2023-03-29T05:56:54.745Z,24.68
2023-03-29T05:57:54.529Z,24.72
2023-03-29T06:04:54.527Z,24.77
2023-03-29T06:08:54.384Z,24.70
2023-03-29T06:09:54.389Z,24.61
2023-03-29T06:11:54.354Z,24.33
2023-03-29T06:12:54.408Z,24.27
2023-03-29T06:14:54.383Z,23.92
2023-03-29T06:15:54.494Z,23.91
2023-03-29T06:20:54.353Z,23.39
2023-03-29T06:23:54.336Z,23.22
2023-03-29T06:24:54.449Z,23.18
2023-03-29T06:25:54.347Z,23.16
2023-03-29T06:27:54.350Z,23.09
2023-03-29T06:30:54.443Z,23.04
2023-03-29T06:31:54.425Z,23.09
2023-03-29T06:33:54.345Z,23.13
2023-03-29T06:34:54.355Z,23.23
2023-03-29T06:35:54.395Z,23.32
2023-03-29T06:38:54.320Z,23.56
2023-03-29T06:39:54.328Z,23.60
2023-03-29T06:40:54.343Z,23.66
2023-03-29T06:42:54.358Z,23.84
2023-03-29T06:43:54.267Z,23.87
2023-03-29T06:46:54.361Z,24.09
2023-03-29T06:47:54.295Z,24.15
2023-03-29T06:51:54.142Z,24.36
2023-03-29T06:52:54.115Z,24.42
2023-03-29T06:53:54.174Z,24.46
2023-03-29T06:55:54.068Z,24.57
2023-03-29T06:56:54.091Z,24.61
2023-03-29T06:58:54.044Z,24.71
2023-03-29T06:59:54.008Z,24.75
2023-03-29T07:04:53.925Z,24.92
2023-03-29T07:05:53.896Z,24.91
2023-03-29T07:07:53.871Z,24.99
2023-03-29T07:08:53.839Z,25.01
2023-03-29T07:09:54.112Z,24.99
2023-03-29T07:10:53.811Z,25.01
2023-03-29T07:11:53.830Z,25.05
2023-03-29T07:12:53.865Z,25.08
2023-03-29T07:15:53.835Z,25.15
2023-03-29T07:18:53.656Z,25.23
2023-03-29T07:19:53.676Z,25.22
2023-03-29T07:21:53.616Z,25.29
2023-03-29T07:22:53.575Z,25.30
2023-03-29T07:23:53.609Z,25.32
2023-03-29T07:27:03.390Z,25.34
2023-03-29T07:27:54.563Z,25.37
2023-03-29T07:30:53.569Z,25.37
2023-03-29T07:32:53.619Z,25.40
2023-03-29T07:34:53.417Z,25.43
2023-03-29T07:36:53.300Z,25.43
2023-03-29T07:39:53.191Z,25.49
2023-03-29T07:42:53.127Z,25.56
2023-03-29T07:43:53.096Z,25.51
2023-03-29T07:44:53.468Z,25.51
2023-03-29T07:45:53.097Z,25.51
2023-03-29T07:46:53.031Z,25.50
2023-03-29T07:47:53.091Z,25.50
2023-03-29T07:51:52.973Z,25.47
2023-03-29T07:53:52.994Z,25.47
2023-03-29T07:54:52.968Z,25.44
2023-03-29T07:55:52.905Z,25.40
2023-03-29T07:56:53.170Z,25.39
2023-03-29T07:57:52.991Z,25.36
2023-03-29T08:00:52.812Z,25.34
2023-03-29T08:04:52.767Z,25.47
2023-03-29T08:06:52.701Z,25.50
2023-03-29T08:07:52.655Z,25.54
2023-03-29T08:08:52.615Z,25.56
2023-03-29T08:09:52.596Z,25.57
2023-03-29T08:15:52.572Z,25.74
2023-03-29T08:16:52.548Z,25.75
2023-03-29T08:17:52.571Z,25.80
2023-03-29T08:18:52.443Z,25.80
2023-03-29T08:19:52.515Z,25.83
2023-03-29T08:20:53.378Z,25.84
2023-03-29T08:24:52.273Z,25.88
2023-03-29T08:26:52.219Z,25.94
2023-03-29T08:27:52.256Z,25.92
2023-03-29T08:29:52.159Z,25.98
2023-03-29T08:30:52.251Z,25.96
2023-03-29T08:35:52.020Z,25.99
2023-03-29T08:36:52.020Z,25.98
2023-03-29T08:37:52.116Z,25.98
2023-03-29T08:38:51.973Z,25.96
2023-03-29T08:39:51.915Z,25.95
2023-03-29T08:40:52.799Z,25.95
2023-03-29T08:41:51.878Z,25.91
2023-03-29T08:42:51.884Z,25.88
2023-03-29T08:44:51.789Z,25.87
2023-03-29T08:45:51.888Z,25.85
2023-03-29T08:48:51.788Z,25.75
2023-03-29T08:49:51.943Z,25.75
2023-03-29T08:50:51.994Z,25.73
2023-03-29T08:51:51.705Z,25.70
2023-03-29T08:55:51.583Z,25.61
2023-03-29T08:58:51.586Z,25.64
2023-03-29T08:59:51.507Z,25.66
2023-03-29T09:02:51.620Z,25.74
2023-03-29T09:03:51.938Z,25.75
2023-03-29T09:04:51.410Z,25.78
2023-03-29T09:05:52.445Z,25.81
2023-03-29T09:07:51.402Z,25.84
2023-03-29T09:08:51.540Z,25.88
2023-03-29T09:09:51.273Z,25.91
2023-03-29T09:10:51.454Z,25.91
2023-03-29T09:13:51.191Z,25.96
2023-03-29T09:17:51.049Z,26.08
2023-03-29T09:18:51.275Z,26.09
2023-03-29T09:21:50.962Z,26.16
2023-03-29T09:22:50.870Z,26.16
2023-03-29T09:23:50.847Z,26.19
2023-03-29T09:25:54.090Z,26.23
2023-03-29T09:29:50.783Z,26.28
2023-03-29T09:31:50.878Z,26.32
2023-03-29T09:33:50.537Z,26.32
2023-03-29T09:34:50.540Z,26.33
2023-03-29T09:36:50.420Z,26.35
2023-03-29T09:40:50.294Z,26.40
2023-03-29T09:41:50.341Z,26.44
2023-03-29T09:43:50.554Z,26.46
2023-03-29T09:44:50.240Z,26.47
2023-03-29T09:48:50.017Z,26.50
2023-03-29T09:51:49.938Z,26.50
2023-03-29T09:53:49.874Z,26.48
2023-03-29T09:55:50.608Z,26.50
2023-03-29T09:56:49.899Z,26.48
2023-03-29T10:01:49.642Z,26.50
2023-03-29T10:02:49.605Z,26.50
2023-03-29T10:03:49.620Z,26.53
2023-03-29T10:04:49.504Z,26.50
2023-03-29T10:08:49.468Z,26.53
2023-03-29T10:11:49.353Z,26.54
2023-03-29T10:12:49.247Z,26.51
2023-03-29T10:13:49.247Z,26.50
2023-03-29T10:14:52.992Z,26.51
2023-03-29T10:17:49.114Z,26.51
2023-03-29T10:21:48.978Z,26.50
2023-03-29T10:22:48.904Z,26.50
2023-03-29T10:24:48.849Z,26.50
2023-03-29T10:27:48.737Z,26.46
2023-03-29T10:28:48.697Z,26.39
2023-03-29T10:32:48.610Z,26.22
2023-03-29T10:34:48.492Z,26.22
2023-03-29T10:36:48.502Z,26.12
2023-03-29T10:37:48.492Z,26.11
2023-03-29T10:38:48.372Z,26.13
2023-03-29T10:40:48.368Z,26.12
2023-03-29T10:41:48.263Z,26.08
2023-03-29T10:42:48.345Z,26.08
2023-03-29T10:47:48.122Z,26.02
2023-03-29T10:48:48.029Z,26.03
2023-03-29T10:50:48.000Z,26.03
2023-03-29T10:51:47.898Z,26.06
2023-03-29T10:52:47.869Z,26.08
2023-03-29T10:56:47.748Z,26.05
2023-03-29T10:57:47.797Z,26.03
2023-03-29T10:59:47.670Z,26.03
2023-03-29T11:00:47.608Z,26.06
2023-03-29T11:01:47.640Z,26.08
2023-03-29T11:02:47.636Z,26.08
2023-03-29T11:03:47.553Z,26.11
2023-03-29T11:04:47.578Z,26.11
2023-03-29T11:06:47.431Z,26.16
2023-03-29T11:09:47.423Z,26.15
2023-03-29T11:10:47.363Z,26.18
2023-03-29T11:11:47.365Z,26.22
2023-03-29T11:12:47.241Z,26.20
2023-03-29T11:13:47.183Z,26.28
2023-03-29T11:14:47.201Z,26.29
2023-03-29T11:16:47.134Z,26.36
2023-03-29T11:19:47.019Z,26.40
2023-03-29T11:20:46.982Z,26.43
2023-03-29T11:23:46.895Z,26.47
2023-03-29T11:24:46.870Z,26.44
2023-03-29T11:26:46.815Z,26.44
2023-03-29T11:28:46.802Z,26.43
2023-03-29T11:31:46.692Z,26.39
2023-03-29T11:32:46.724Z,26.37
2023-03-29T11:34:46.538Z,26.35
2023-03-29T11:37:46.430Z,26.26
2023-03-29T11:39:46.581Z,26.25
2023-03-29T11:41:46.293Z,26.22
2023-03-29T11:44:46.938Z,26.33
2023-03-29T11:45:46.283Z,26.36
2023-03-29T11:47:46.149Z,26.40
2023-03-29T11:48:46.032Z,26.42
2023-03-29T11:49:46.000Z,26.43
2023-03-29T11:54:45.856Z,26.46
2023-03-29T11:56:45.916Z,26.51
2023-03-29T11:57:45.722Z,26.57
2023-03-29T11:58:45.701Z,26.53
2023-03-29T12:00:45.662Z,26.55
2023-03-29T12:01:45.609Z,26.57
2023-03-29T12:06:45.449Z,26.58
2023-03-29T12:07:45.400Z,26.61
2023-03-29T12:09:45.321Z,26.61
2023-03-29T12:10:45.277Z,26.63
2023-03-29T12:11:45.249Z,26.64
2023-03-29T12:13:45.171Z,26.67
2023-03-29T12:18:44.988Z,26.70
2023-03-29T12:19:44.996Z,26.70
2023-03-29T12:20:44.975Z,26.68
2023-03-29T12:22:44.884Z,26.73
2023-03-29T12:25:44.819Z,26.71
2023-03-29T12:26:44.766Z,26.63
2023-03-29T12:28:44.712Z,26.60
2023-03-29T12:31:44.797Z,26.53
2023-03-29T12:32:45.006Z,26.51
2023-03-29T12:33:44.540Z,26.53
2023-03-29T12:37:44.428Z,26.51
2023-03-29T12:39:44.341Z,26.51
2023-03-29T12:41:44.895Z,26.51
2023-03-29T12:42:44.342Z,26.54
2023-03-29T12:44:44.175Z,26.55
2023-03-29T12:45:44.226Z,26.58
2023-03-29T12:46:44.199Z,26.61
2023-03-29T12:47:44.106Z,26.60
2023-03-29T12:48:44.094Z,26.63
2023-03-29T12:50:44.080Z,26.64
2023-03-29T12:51:43.949Z,26.68
2023-03-29T12:53:41.190Z,26.55
2023-03-29T12:54:41.209Z,26.61
2023-03-29T12:55:41.201Z,26.67
2023-03-29T12:56:41.238Z,26.70
2023-03-29T12:57:41.213Z,26.75
2023-03-29T12:58:41.184Z,26.77
2023-03-29T12:59:41.157Z,26.82
2023-03-29T13:00:41.136Z,26.88
2023-03-29T13:01:41.353Z,26.87
2023-03-29T13:02:41.303Z,26.92
2023-03-29T13:03:41.135Z,26.94
2023-03-29T13:04:41.078Z,26.98
2023-03-29T13:05:41.068Z,27.03
2023-03-29T13:06:41.101Z,27.08
2023-03-29T13:07:41.040Z,27.08
2023-03-29T13:08:41.032Z,27.06
2023-03-29T13:09:41.120Z,27.06
2023-03-29T13:10:40.992Z,27.08
2023-03-29T13:11:41.010Z,27.15
2023-03-29T13:12:40.972Z,27.21
2023-03-29T13:13:40.967Z,27.25
2023-03-29T13:14:40.960Z,27.28
2023-03-29T13:15:40.998Z,27.29
2023-03-29T13:16:40.932Z,27.26
2023-03-29T13:17:40.935Z,27.26
2023-03-29T13:18:40.932Z,27.29
2023-03-29T13:19:40.881Z,27.28
2023-03-29T13:20:40.897Z,27.28
2023-03-29T13:21:40.886Z,27.26
2023-03-29T13:22:40.859Z,27.22
2023-03-29T13:23:40.840Z,27.23
2023-03-29T13:24:40.923Z,27.21
2023-03-29T13:25:40.814Z,27.17
2023-03-29T13:26:40.931Z,27.08
2023-03-29T13:27:40.843Z,27.03
2023-03-29T13:28:40.807Z,26.97
2023-03-29T13:29:40.825Z,26.91
2023-03-29T13:30:40.848Z,26.81
2023-03-29T13:31:40.962Z,26.78
2023-03-29T13:32:40.821Z,26.75
2023-03-29T13:33:40.763Z,26.77
2023-03-29T13:34:40.769Z,26.77
2023-03-29T13:35:40.770Z,26.78
2023-03-29T13:36:40.749Z,26.75
2023-03-29T13:37:40.825Z,26.73
2023-03-29T13:38:40.726Z,26.71
2023-03-29T13:39:40.814Z,26.75
2023-03-29T13:40:40.746Z,26.78
2023-03-29T13:41:40.721Z,26.77
2023-03-29T13:42:40.749Z,26.74
2023-03-29T13:43:40.690Z,26.78
2023-03-29T13:44:40.797Z,26.78
2023-03-29T13:45:40.773Z,26.77
2023-03-29T13:46:40.942Z,26.78
2023-03-29T13:47:41.805Z,26.78
2023-03-29T13:48:40.895Z,26.78
2023-03-29T13:49:40.946Z,26.80
2023-03-29T13:50:40.974Z,26.81
2023-03-29T13:51:41.095Z,26.85
2023-03-29T13:52:41.093Z,26.84
2023-03-29T13:53:41.159Z,26.81
2023-03-29T13:54:41.169Z,26.84
2023-03-29T13:55:41.212Z,26.85
2023-03-29T13:56:41.266Z,26.87
2023-03-29T13:57:41.345Z,26.84
2023-03-29T13:58:41.344Z,26.87
2023-03-29T13:59:41.381Z,26.89
2023-03-29T14:00:41.443Z,26.88
2023-03-29T14:01:41.379Z,26.91
2023-03-29T14:02:41.446Z,26.92
2023-03-29T14:03:41.329Z,26.95
2023-03-29T14:04:41.308Z,26.95
2023-03-29T14:05:41.335Z,26.97
2023-03-29T14:06:41.282Z,26.97
2023-03-29T14:07:41.264Z,27.01
2023-03-29T14:08:41.293Z,26.99
2023-03-29T14:09:41.238Z,26.94
2023-03-29T14:10:41.238Z,26.98
2023-03-29T14:11:41.250Z,26.95
2023-03-29T14:12:42.055Z,26.91
2023-03-29T14:13:41.187Z,26.98
2023-03-29T14:14:55.710Z,26.99
2023-03-29T14:15:42.200Z,26.99
2023-03-29T14:16:41.152Z,26.98
2023-03-29T14:17:41.206Z,26.97
2023-03-29T14:18:41.085Z,27.03
2023-03-29T14:19:41.092Z,27.03
2023-03-29T14:20:41.094Z,27.08
2023-03-29T14:21:41.044Z,27.13
2023-03-29T14:22:41.060Z,27.16
2023-03-29T14:23:41.017Z,27.21
2023-03-29T14:24:41.015Z,27.22
2023-03-29T14:25:40.990Z,27.22
2023-03-29T14:26:40.998Z,27.22
2023-03-29T14:27:41.038Z,27.23
2023-03-29T14:28:41.084Z,27.23
2023-03-29T14:29:41.123Z,27.26
2023-03-29T14:30:41.166Z,27.22
2023-03-29T14:31:41.234Z,27.19
2023-03-29T14:32:41.322Z,27.17
2023-03-29T14:33:41.320Z,27.17
2023-03-29T14:34:41.331Z,27.15
2023-03-29T14:35:41.346Z,27.16
2023-03-29T14:36:41.386Z,27.13
2023-03-29T14:37:41.247Z,27.12
2023-03-29T14:38:41.216Z,27.12
2023-03-29T14:39:41.197Z,27.10
2023-03-29T14:40:41.199Z,27.09
2023-03-29T14:41:41.162Z,27.05
2023-03-29T14:42:41.160Z,27.01
2023-03-29T14:43:41.135Z,27.06
2023-03-29T14:44:41.126Z,27.03
2023-03-29T14:45:41.128Z,26.98
2023-03-29T14:46:41.201Z,26.98
2023-03-29T14:47:41.114Z,26.98
2023-03-29T14:48:41.040Z,26.97
2023-03-29T14:49:41.019Z,26.94
2023-03-29T14:50:40.988Z,26.89
2023-03-29T14:51:40.993Z,26.82
2023-03-29T14:52:40.967Z,26.80
2023-03-29T14:53:40.951Z,26.77
2023-03-29T14:54:40.911Z,26.73
2023-03-29T14:55:40.919Z,26.67
2023-03-29T14:56:40.905Z,26.64
2023-03-29T14:57:40.891Z,26.60
2023-03-29T14:58:40.870Z,26.58
2023-03-29T14:59:40.880Z,26.55
2023-03-29T15:00:40.844Z,26.50
2023-03-29T15:01:40.870Z,26.47
2023-03-29T15:02:40.929Z,26.44
2023-03-29T15:03:41.009Z,26.40
2023-03-29T15:04:40.844Z,26.39
2023-03-29T15:05:40.840Z,26.37
2023-03-29T15:06:40.819Z,26.32
2023-03-29T15:07:40.825Z,26.28
2023-03-29T15:08:44.088Z,26.33
2023-03-29T15:09:41.799Z,26.29
2023-03-29T15:10:42.993Z,26.26
2023-03-29T15:11:40.771Z,26.28
2023-03-29T15:12:40.769Z,26.25
2023-03-29T15:13:40.757Z,26.25
2023-03-29T15:14:40.748Z,26.26
2023-03-29T15:15:40.773Z,26.23
2023-03-29T15:16:40.728Z,26.25
2023-03-29T15:17:50.896Z,26.20
2023-03-29T15:18:41.704Z,26.20
2023-03-29T15:19:40.687Z,26.20
2023-03-29T15:20:40.668Z,26.22
2023-03-29T15:21:40.661Z,26.22
2023-03-29T15:22:40.635Z,26.23
2023-03-29T15:23:40.619Z,26.19
2023-03-29T15:24:40.612Z,26.18
2023-03-29T15:25:40.591Z,26.20
2023-03-29T15:26:40.590Z,26.18
2023-03-29T15:27:40.572Z,26.19
2023-03-29T15:28:40.548Z,26.18
2023-03-29T15:29:40.556Z,26.16
2023-03-29T15:30:40.548Z,26.19
2023-03-29T15:31:40.566Z,26.16
2023-03-29T15:32:40.595Z,26.19
2023-03-29T15:33:40.666Z,26.19
2023-03-29T15:34:40.494Z,26.19
2023-03-29T15:35:40.543Z,26.19
2023-03-29T15:36:40.530Z,26.19
2023-03-29T15:37:40.488Z,26.19
2023-03-29T15:38:44.182Z,26.18
2023-03-29T15:39:40.437Z,26.20
2023-03-29T15:40:40.445Z,26.23
2023-03-29T15:41:40.407Z,26.19
2023-03-29T15:42:40.401Z,26.18
2023-03-29T15:43:40.381Z,26.18
2023-03-29T15:44:40.366Z,26.23
2023-03-29T15:45:40.357Z,26.19
2023-03-29T15:46:40.383Z,26.20
2023-03-29T15:47:40.364Z,26.25
2023-03-29T15:48:40.331Z,26.25
2023-03-29T15:49:40.318Z,26.22
2023-03-29T15:50:40.304Z,26.20
2023-03-29T15:51:40.284Z,26.23
2023-03-29T15:52:40.289Z,26.23
2023-03-29T15:53:40.293Z,26.20
2023-03-29T15:54:40.297Z,26.29
2023-03-29T15:55:40.270Z,26.23
2023-03-29T15:56:42.588Z,26.28
2023-03-29T15:57:40.333Z,26.26
2023-03-29T15:58:40.251Z,26.25
2023-03-29T15:59:40.223Z,26.25
2023-03-29T16:00:40.227Z,26.25
2023-03-29T16:01:40.274Z,26.25
2023-03-29T16:02:40.327Z,26.26
2023-03-29T16:03:40.200Z,26.26
2023-03-29T16:04:40.152Z,26.26
2023-03-29T16:05:40.127Z,26.25
2023-03-29T16:06:40.101Z,26.22
2023-03-29T16:07:40.105Z,26.25
2023-03-29T16:08:40.080Z,26.25
2023-03-29T16:09:40.059Z,26.29
2023-03-29T16:10:40.057Z,26.28
2023-03-29T16:11:40.036Z,26.26
2023-03-29T16:12:40.026Z,26.30
2023-03-29T16:13:40.066Z,26.28
2023-03-29T16:14:41.879Z,26.30
2023-03-29T16:15:39.996Z,26.32
2023-03-29T16:16:40.003Z,26.29
2023-03-29T16:17:40.027Z,26.32
2023-03-29T16:18:39.940Z,26.32
2023-03-29T16:19:39.938Z,26.35
2023-03-29T16:20:39.945Z,26.29
2023-03-29T16:21:39.922Z,26.28
2023-03-29T16:22:39.917Z,26.28
2023-03-29T16:23:39.907Z,26.28
2023-03-29T16:24:39.887Z,26.26
2023-03-29T16:25:39.925Z,26.25
2023-03-29T16:26:39.862Z,26.25
2023-03-29T16:27:39.868Z,26.25
2023-03-29T16:28:39.861Z,26.22
2023-03-29T16:29:39.833Z,26.20
2023-03-29T16:30:39.819Z,26.23
2023-03-29T16:31:39.842Z,26.25
2023-03-29T16:32:39.883Z,26.23
2023-03-29T16:33:39.808Z,26.20
2023-03-29T16:34:39.786Z,26.20
2023-03-29T16:35:39.872Z,26.22
2023-03-29T16:36:39.739Z,26.22
2023-03-29T16:37:39.755Z,26.22
2023-03-29T16:38:39.748Z,26.20
2023-03-29T16:39:39.743Z,26.20
2023-03-29T16:40:39.733Z,26.22
2023-03-29T16:41:39.767Z,26.19
2023-03-29T16:42:39.770Z,26.23
2023-03-29T16:43:39.779Z,26.19
2023-03-29T16:44:39.719Z,26.22
2023-03-29T16:45:39.718Z,26.19
2023-03-29T16:46:39.717Z,26.19
2023-03-29T16:47:39.702Z,26.18
2023-03-29T16:48:39.707Z,26.19
2023-03-29T16:49:40.242Z,26.18
2023-03-29T16:50:39.707Z,26.18
2023-03-29T16:51:39.680Z,26.15
2023-03-29T16:52:39.696Z,26.18
2023-03-29T16:53:39.674Z,26.18
2023-03-29T16:54:39.673Z,26.16
2023-03-29T16:55:39.661Z,26.15
2023-03-29T16:56:39.697Z,26.13
2023-03-29T16:57:39.671Z,26.15
2023-03-29T16:58:39.648Z,26.11
2023-03-29T16:59:39.655Z,26.12
2023-03-29T17:00:39.627Z,26.12
2023-03-29T17:01:39.629Z,26.13
2023-03-29T17:02:39.661Z,26.13
2023-03-29T17:03:39.611Z,26.13
2023-03-29T17:04:39.674Z,26.15
2023-03-29T17:05:39.611Z,26.13
2023-03-29T17:06:39.615Z,26.09
2023-03-29T17:07:39.633Z,26.13
2023-03-29T17:08:39.609Z,26.09
2023-03-29T17:09:39.652Z,26.09
2023-03-29T17:10:39.698Z,26.08
2023-03-29T17:11:39.795Z,26.11
2023-03-29T17:12:39.833Z,26.06
2023-03-29T17:13:40.282Z,26.11
2023-03-29T17:14:39.917Z,26.12
2023-03-29T17:15:40.159Z,26.09
2023-03-29T17:16:40.079Z,26.12
2023-03-29T17:17:40.084Z,26.12
2023-03-29T17:18:40.095Z,26.11
2023-03-29T17:19:40.158Z,26.11
2023-03-29T17:20:40.190Z,26.08
2023-03-29T17:21:40.255Z,26.09
2023-03-29T17:22:40.282Z,26.09
2023-03-29T17:23:40.352Z,26.08
2023-03-29T17:24:40.392Z,26.11
2023-03-29T17:25:40.467Z,26.09
2023-03-29T17:26:40.490Z,26.12
2023-03-29T17:27:40.550Z,26.09
2023-03-29T17:28:40.573Z,26.08
2023-03-29T17:29:40.635Z,26.08
2023-03-29T17:30:40.670Z,26.08
2023-03-29T17:31:40.778Z,26.08
2023-03-29T17:32:40.838Z,26.09
2023-03-29T17:33:40.827Z,26.06
2023-03-29T17:34:40.902Z,26.08
2023-03-29T17:35:40.981Z,26.08
2023-03-29T17:36:40.981Z,26.06
2023-03-29T17:37:41.050Z,26.06
2023-03-29T17:38:41.125Z,26.08
2023-03-29T17:39:41.153Z,26.05
2023-03-29T17:40:41.198Z,26.06
2023-03-29T17:41:41.258Z,26.05
2023-03-29T17:42:41.306Z,26.06
2023-03-29T17:43:41.367Z,26.03
2023-03-29T17:44:41.444Z,26.05
2023-03-29T17:45:41.477Z,26.06
2023-03-29T17:46:41.576Z,26.05
2023-03-29T17:47:41.635Z,26.05
2023-03-29T17:48:41.620Z,26.05
2023-03-29T17:49:41.704Z,26.02
2023-03-29T17:50:41.754Z,26.01
2023-03-29T17:51:41.802Z,26.03
2023-03-29T17:52:41.876Z,26.03
2023-03-29T17:53:41.951Z,26.01
2023-03-29T17:54:41.972Z,26.01
2023-03-29T17:55:42.015Z,25.99
2023-03-29T17:56:42.124Z,26.01
2023-03-29T17:57:42.146Z,26.02